Vance Air Force Base
KEND : rendu visible

Aérodrome :











RETROUVEZ-NOUS SUR...

 
LOGIN :

S'inscrire | Disclaimer

   EN    FR    IT 

 









Légende :    VFR   VFR Marginal   IFR   IFR Intensif   IFR Très Intensif
Visi : 
Plafond : 
>= 8 km
>= 3000ft
5 à 8 km
1000 à 3000 ft
1500m à 5 km
500 à 1000 ft
800 à 1500m
200 à 500 ft
< 800m
< 200 ft
Symboles :   Orages  Brouillard  Fortes neiges  Fortes précipitations  Vent > 20 kt






- Altitude de l'aérodrome : 1307 ft


KEND - Vance Air Force Base

DERNIER METAR :
  • 271756Z 35008KT 4SM -FZRA BR OVC006 M01/M01 A3027 RMK SLPNO WND DATA ESTMD P0004 60011

METARs EXPIRÉS :
  • 271656Z 35007KT 4SM -FZRA BR BKN005 BKN010 M01/M01 A3026 RMK FZRAE09UPB09E15FZRAB15 SLPNO WND DATA ESTMD
  • 271556Z 36010KT 5SM -FZRA BR BKN005 BKN010 M01/M01 A3029 RMK CIG 005V007 SLPNO WIND DATA ESTMD P0004

TAF TAF KEND
Valide du 27 à 18h jusqu'au 29 à 00h UTC


271800Z 2718/2900 36011KT 6000 -FZRA BR OVC006 690009 QNH3026INS
TEMPO 2718/2722 01009KT 4800 -FZRAPL BR OVC003
BECMG 2722/2723 36010KT 6000 BR OVC005 690009 QNH3025INS
BECMG 2804/2805 35008KT 4800 -FZRAPL BR OVC005 690009 QNH3020INS
BECMG 2816/2817 36010KT 6000 SHRA OVC005 690509 QNH3010INS TX03/2818Z TNM01/2718Z
FIR KZKC / Amérique du Nord



MET'MAP, la Météo Aéronautique d'un coup d'oeil ! - Copyright ORBIFLY Décembre 2007 - Disclaimer

ORBIFLY MET'MAP TEAM :

Programmation & Développement : Alexandra Zaïnal
Sur une idée originale de : Baudouin d'Aumeries
Assistance à la programmation : Marc-Olivier Méhu
Soutien technique & logistique : Manuel Goepfert

Contact : metmap@orbifly.com




SOURCES & CREDITS :

   NOAA       Earth
Advisory